Auburn, New York
Current Conditions -  °F | °C
As of 8:40 AM on Friday 19 Dec 2014 (Local Time) from KSYR Reporting Station
Light Snow Light Snow  
Wind Chill: 15°   Ceiling: 1800
Heat Index: 24°   Visibility: 9mi
Dew Point: 20°   Wind: 8mph
Humidity: 84%   Direction: 300°WNW
Pressure: 30.12"   Gusts: NA
Location:  42.93°N, 76.56°W
Report Text: KSYR 191340Z 30007KT 9SM -SN OVC018 M04/M07 A3012 RMK AO2 P0000 T10441067
Loading
Personal Weather Stations






























Interactive Weather Map New forecast layout! Learn more

10-Day Weather Forecast

Advertisements
Track Severe Weather on mobile